sensor_id;sensor_type;location;lat;lon;timestamp;P1;durP1;ratioP1;P2;durP2;ratioP2
20069;SDS011;10195;50.868;4.382;2023-02-01T00:02:16;29.73;;;7.97;;
20069;SDS011;10195;50.868;4.382;2023-02-01T00:04:42;25.23;;;6.80;;
20069;SDS011;10195;50.868;4.382;2023-02-01T00:07:08;24.10;;;7.37;;
20069;SDS011;10195;50.868;4.382;2023-02-01T00:09:33;32.13;;;9.40;;
20069;SDS011;10195;50.868;4.382;2023-02-01T00:11:59;36.30;;;7.50;;
20069;SDS011;10195;50.868;4.382;2023-02-01T00:14:27;27.17;;;6.87;;
20069;SDS011;10195;50.868;4.382;2023-02-01T00:16:53;25.20;;;7.80;;
20069;SDS011;10195;50.868;4.382;2023-02-01T00:19:18;22.90;;;7.73;;
20069;SDS011;10195;50.868;4.382;2023-02-01T00:21:44;23.90;;;7.93;;
20069;SDS011;10195;50.868;4.382;2023-02-01T00:24:10;28.90;;;8.70;;
20069;SDS011;10195;50.868;4.382;2023-02-01T00:26:41;23.73;;;7.77;;
20069;SDS011;10195;50.868;4.382;2023-02-01T00:29:12;25.17;;;8.83;;
20069;SDS011;10195;50.868;4.382;2023-02-01T00:31:43;32.77;;;7.90;;
20069;SDS011;10195;50.868;4.382;2023-02-01T00:34:10;28.13;;;7.17;;
20069;SDS011;10195;50.868;4.382;2023-02-01T00:36:38;30.13;;;8.10;;
20069;SDS011;10195;50.868;4.382;2023-02-01T00:39:04;29.13;;;7.47;;
20069;SDS011;10195;50.868;4.382;2023-02-01T00:41:29;18.97;;;6.67;;
20069;SDS011;10195;50.868;4.382;2023-02-01T00:43:55;27.57;;;6.93;;
20069;SDS011;10195;50.868;4.382;2023-02-01T00:46:23;22.27;;;7.30;;
20069;SDS011;10195;50.868;4.382;2023-02-01T00:48:49;33.70;;;7.37;;
20069;SDS011;10195;50.868;4.382;2023-02-01T00:51:16;22.83;;;7.10;;
20069;SDS011;10195;50.868;4.382;2023-02-01T00:53:43;26.37;;;6.27;;
20069;SDS011;10195;50.868;4.382;2023-02-01T00:56:10;28.53;;;6.13;;
20069;SDS011;10195;50.868;4.382;2023-02-01T00:58:36;22.23;;;6.50;;
20069;SDS011;10195;50.868;4.382;2023-02-01T01:03:30;23.03;;;6.10;;
20069;SDS011;10195;50.868;4.382;2023-02-01T01:05:58;25.77;;;5.37;;
20069;SDS011;10195;50.868;4.382;2023-02-01T01:08:26;25.23;;;6.03;;
20069;SDS011;10195;50.868;4.382;2023-02-01T01:10:52;24.97;;;6.17;;
20069;SDS011;10195;50.868;4.382;2023-02-01T01:13:18;21.93;;;5.90;;
20069;SDS011;10195;50.868;4.382;2023-02-01T01:15:43;27.80;;;6.23;;
20069;SDS011;10195;50.868;4.382;2023-02-01T01:18:09;28.67;;;6.23;;
20069;SDS011;10195;50.868;4.382;2023-02-01T01:20:35;19.20;;;5.77;;
20069;SDS011;10195;50.868;4.382;2023-02-01T01:23:03;17.63;;;5.13;;
20069;SDS011;10195;50.868;4.382;2023-02-01T01:25:30;26.03;;;5.30;;
20069;SDS011;10195;50.868;4.382;2023-02-01T01:27:56;22.87;;;6.20;;
20069;SDS011;10195;50.868;4.382;2023-02-01T01:30:21;15.43;;;4.73;;
20069;SDS011;10195;50.868;4.382;2023-02-01T01:32:47;22.70;;;5.73;;
20069;SDS011;10195;50.868;4.382;2023-02-01T01:35:13;24.87;;;5.77;;
20069;SDS011;10195;50.868;4.382;2023-02-01T01:37:39;25.20;;;6.37;;
20069;SDS011;10195;50.868;4.382;2023-02-01T01:40:05;22.27;;;4.97;;
20069;SDS011;10195;50.868;4.382;2023-02-01T01:42:50;19.63;;;4.87;;
20069;SDS011;10195;50.868;4.382;2023-02-01T01:47:52;18.90;;;4.53;;
20069;SDS011;10195;50.868;4.382;2023-02-01T01:50:31;26.70;;;4.60;;
20069;SDS011;10195;50.868;4.382;2023-02-01T01:53:07;17.93;;;4.57;;
20069;SDS011;10195;50.868;4.382;2023-02-01T01:55:37;16.43;;;4.37;;
20069;SDS011;10195;50.868;4.382;2023-02-01T01:58:10;17.83;;;3.70;;
20069;SDS011;10195;50.868;4.382;2023-02-01T02:00:40;23.20;;;5.17;;
20069;SDS011;10195;50.868;4.382;2023-02-01T02:03:08;20.80;;;4.57;;
20069;SDS011;10195;50.868;4.382;2023-02-01T02:05:40;19.30;;;4.33;;
20069;SDS011;10195;50.868;4.382;2023-02-01T02:08:06;18.97;;;4.17;;
20069;SDS011;10195;50.868;4.382;2023-02-01T02:10:32;23.13;;;4.90;;
20069;SDS011;10195;50.868;4.382;2023-02-01T02:13:16;18.30;;;4.13;;
20069;SDS011;10195;50.868;4.382;2023-02-01T02:15:45;19.67;;;4.10;;
20069;SDS011;10195;50.868;4.382;2023-02-01T02:18:41;24.70;;;4.40;;
20069;SDS011;10195;50.868;4.382;2023-02-01T02:21:27;13.73;;;3.40;;
20069;SDS011;10195;50.868;4.382;2023-02-01T02:38:12;19.97;;;4.37;;
20069;SDS011;10195;50.868;4.382;2023-02-01T02:46:23;20.00;;;3.87;;
20069;SDS011;10195;50.868;4.382;2023-02-01T02:49:17;20.80;;;4.53;;
20069;SDS011;10195;50.868;4.382;2023-02-01T02:51:53;22.57;;;4.30;;
20069;SDS011;10195;50.868;4.382;2023-02-01T02:54:43;27.20;;;4.57;;
20069;SDS011;10195;50.868;4.382;2023-02-01T03:00:02;26.97;;;4.77;;
20069;SDS011;10195;50.868;4.382;2023-02-01T03:02:50;20.30;;;4.73;;
20069;SDS011;10195;50.868;4.382;2023-02-01T03:05:35;12.43;;;2.67;;
20069;SDS011;10195;50.868;4.382;2023-02-01T03:08:18;23.83;;;4.03;;
20069;SDS011;10195;50.868;4.382;2023-02-01T03:13:36;15.10;;;4.47;;
20069;SDS011;10195;50.868;4.382;2023-02-01T03:16:19;25.87;;;4.10;;
20069;SDS011;10195;50.868;4.382;2023-02-01T03:19:14;21.53;;;4.17;;
20069;SDS011;10195;50.868;4.382;2023-02-01T03:21:47;19.87;;;4.20;;
20069;SDS011;10195;50.868;4.382;2023-02-01T03:27:16;23.97;;;4.40;;
20069;SDS011;10195;50.868;4.382;2023-02-01T03:30:06;13.07;;;2.93;;
20069;SDS011;10195;50.868;4.382;2023-02-01T03:32:36;19.87;;;4.37;;
20069;SDS011;10195;50.868;4.382;2023-02-01T03:35:28;18.50;;;4.00;;
20069;SDS011;10195;50.868;4.382;2023-02-01T03:41:03;8.53;;;2.10;;
20069;SDS011;10195;50.868;4.382;2023-02-01T03:43:42;22.37;;;4.20;;
20069;SDS011;10195;50.868;4.382;2023-02-01T03:46:17;15.70;;;3.97;;
20069;SDS011;10195;50.868;4.382;2023-02-01T03:48:47;14.50;;;3.83;;
20069;SDS011;10195;50.868;4.382;2023-02-01T03:51:16;23.27;;;3.93;;
20069;SDS011;10195;50.868;4.382;2023-02-01T03:53:44;18.50;;;3.80;;
20069;SDS011;10195;50.868;4.382;2023-02-01T03:56:14;21.03;;;4.67;;
20069;SDS011;10195;50.868;4.382;2023-02-01T03:58:40;28.37;;;4.60;;
20069;SDS011;10195;50.868;4.382;2023-02-01T04:01:06;25.13;;;4.33;;
20069;SDS011;10195;50.868;4.382;2023-02-01T04:03:32;11.03;;;2.40;;
20069;SDS011;10195;50.868;4.382;2023-02-01T04:05:57;22.93;;;4.37;;
20069;SDS011;10195;50.868;4.382;2023-02-01T04:08:23;28.33;;;5.30;;
20069;SDS011;10195;50.868;4.382;2023-02-01T04:10:49;9.53;;;2.70;;
20069;SDS011;10195;50.868;4.382;2023-02-01T04:13:14;16.57;;;4.47;;
20069;SDS011;10195;50.868;4.382;2023-02-01T04:15:40;28.90;;;4.10;;
20069;SDS011;10195;50.868;4.382;2023-02-01T04:18:06;23.37;;;4.47;;
20069;SDS011;10195;50.868;4.382;2023-02-01T04:20:31;21.00;;;3.70;;
20069;SDS011;10195;50.868;4.382;2023-02-01T04:22:57;18.87;;;3.57;;
20069;SDS011;10195;50.868;4.382;2023-02-01T04:25:23;21.47;;;4.07;;
20069;SDS011;10195;50.868;4.382;2023-02-01T04:27:48;20.30;;;3.40;;
20069;SDS011;10195;50.868;4.382;2023-02-01T04:30:14;22.77;;;3.50;;
20069;SDS011;10195;50.868;4.382;2023-02-01T04:32:40;25.27;;;4.00;;
20069;SDS011;10195;50.868;4.382;2023-02-01T04:35:06;26.10;;;5.97;;
20069;SDS011;10195;50.868;4.382;2023-02-01T04:37:33;17.33;;;4.10;;
20069;SDS011;10195;50.868;4.382;2023-02-01T04:39:59;31.43;;;4.60;;
20069;SDS011;10195;50.868;4.382;2023-02-01T04:42:24;26.77;;;4.13;;
20069;SDS011;10195;50.868;4.382;2023-02-01T04:44:50;21.23;;;4.63;;
20069;SDS011;10195;50.868;4.382;2023-02-01T04:47:16;16.03;;;2.50;;
20069;SDS011;10195;50.868;4.382;2023-02-01T04:49:41;21.53;;;3.70;;
20069;SDS011;10195;50.868;4.382;2023-02-01T04:52:07;22.17;;;3.57;;
20069;SDS011;10195;50.868;4.382;2023-02-01T04:54:33;24.40;;;3.83;;
20069;SDS011;10195;50.868;4.382;2023-02-01T04:56:59;24.50;;;4.23;;
20069;SDS011;10195;50.868;4.382;2023-02-01T04:59:24;20.40;;;3.13;;
20069;SDS011;10195;50.868;4.382;2023-02-01T05:01:50;18.00;;;3.07;;
20069;SDS011;10195;50.868;4.382;2023-02-01T05:04:16;28.57;;;4.70;;
20069;SDS011;10195;50.868;4.382;2023-02-01T05:06:43;25.87;;;4.33;;
20069;SDS011;10195;50.868;4.382;2023-02-01T05:09:09;20.73;;;3.97;;
20069;SDS011;10195;50.868;4.382;2023-02-01T05:11:35;21.67;;;4.60;;
20069;SDS011;10195;50.868;4.382;2023-02-01T05:14:19;31.27;;;4.50;;
20069;SDS011;10195;50.868;4.382;2023-02-01T05:16:45;26.57;;;3.70;;
20069;SDS011;10195;50.868;4.382;2023-02-01T05:19:11;20.63;;;3.33;;
20069;SDS011;10195;50.868;4.382;2023-02-01T05:21:37;17.37;;;3.87;;
20069;SDS011;10195;50.868;4.382;2023-02-01T05:24:03;28.53;;;3.60;;
20069;SDS011;10195;50.868;4.382;2023-02-01T05:26:39;20.57;;;4.07;;
20069;SDS011;10195;50.868;4.382;2023-02-01T05:29:05;21.67;;;3.43;;
20069;SDS011;10195;50.868;4.382;2023-02-01T05:31:32;27.40;;;4.73;;
20069;SDS011;10195;50.868;4.382;2023-02-01T05:33:57;20.43;;;4.33;;
20069;SDS011;10195;50.868;4.382;2023-02-01T05:36:23;27.20;;;3.90;;
20069;SDS011;10195;50.868;4.382;2023-02-01T05:38:49;17.53;;;3.37;;
20069;SDS011;10195;50.868;4.382;2023-02-01T05:41:15;31.83;;;4.43;;
20069;SDS011;10195;50.868;4.382;2023-02-01T05:43:40;34.50;;;4.03;;
20069;SDS011;10195;50.868;4.382;2023-02-01T05:46:06;34.50;;;4.63;;
20069;SDS011;10195;50.868;4.382;2023-02-01T05:48:32;27.77;;;4.37;;
20069;SDS011;10195;50.868;4.382;2023-02-01T05:50:57;26.37;;;4.73;;
20069;SDS011;10195;50.868;4.382;2023-02-01T05:53:23;18.83;;;4.03;;
20069;SDS011;10195;50.868;4.382;2023-02-01T05:55:49;22.40;;;3.97;;
20069;SDS011;10195;50.868;4.382;2023-02-01T05:58:14;29.23;;;4.07;;
20069;SDS011;10195;50.868;4.382;2023-02-01T06:00:40;19.90;;;4.40;;
20069;SDS011;10195;50.868;4.382;2023-02-01T06:03:05;21.23;;;4.10;;
20069;SDS011;10195;50.868;4.382;2023-02-01T06:05:31;18.67;;;3.77;;
20069;SDS011;10195;50.868;4.382;2023-02-01T06:07:57;28.97;;;3.43;;
20069;SDS011;10195;50.868;4.382;2023-02-01T06:10:23;24.20;;;4.10;;
20069;SDS011;10195;50.868;4.382;2023-02-01T06:12:49;17.47;;;3.93;;
20069;SDS011;10195;50.868;4.382;2023-02-01T06:15:14;39.30;;;5.83;;
20069;SDS011;10195;50.868;4.382;2023-02-01T06:17:43;28.83;;;4.47;;
20069;SDS011;10195;50.868;4.382;2023-02-01T06:20:10;20.50;;;4.00;;
20069;SDS011;10195;50.868;4.382;2023-02-01T06:22:37;29.13;;;4.57;;
20069;SDS011;10195;50.868;4.382;2023-02-01T06:25:04;22.83;;;4.07;;
20069;SDS011;10195;50.868;4.382;2023-02-01T06:27:31;21.03;;;4.63;;
20069;SDS011;10195;50.868;4.382;2023-02-01T06:29:57;14.03;;;2.60;;
20069;SDS011;10195;50.868;4.382;2023-02-01T06:32:23;23.33;;;3.67;;
20069;SDS011;10195;50.868;4.382;2023-02-01T06:34:48;23.80;;;3.60;;
20069;SDS011;10195;50.868;4.382;2023-02-01T06:37:14;26.77;;;4.30;;
20069;SDS011;10195;50.868;4.382;2023-02-01T06:39:40;23.23;;;4.10;;
20069;SDS011;10195;50.868;4.382;2023-02-01T06:42:05;30.93;;;4.23;;
20069;SDS011;10195;50.868;4.382;2023-02-01T06:44:31;26.73;;;4.70;;
20069;SDS011;10195;50.868;4.382;2023-02-01T06:46:57;20.27;;;3.90;;
20069;SDS011;10195;50.868;4.382;2023-02-01T06:49:22;22.13;;;4.37;;
20069;SDS011;10195;50.868;4.382;2023-02-01T06:51:48;23.83;;;3.87;;
20069;SDS011;10195;50.868;4.382;2023-02-01T06:54:14;26.40;;;4.27;;
20069;SDS011;10195;50.868;4.382;2023-02-01T06:56:40;22.70;;;3.77;;
20069;SDS011;10195;50.868;4.382;2023-02-01T06:59:06;29.90;;;4.40;;
20069;SDS011;10195;50.868;4.382;2023-02-01T07:01:32;25.87;;;4.53;;
20069;SDS011;10195;50.868;4.382;2023-02-01T07:03:58;25.93;;;4.07;;
20069;SDS011;10195;50.868;4.382;2023-02-01T07:06:24;22.10;;;3.87;;
20069;SDS011;10195;50.868;4.382;2023-02-01T07:08:50;21.47;;;4.83;;
20069;SDS011;10195;50.868;4.382;2023-02-01T07:11:16;21.10;;;4.60;;
20069;SDS011;10195;50.868;4.382;2023-02-01T07:13:43;23.97;;;3.80;;
20069;SDS011;10195;50.868;4.382;2023-02-01T07:16:11;29.13;;;4.57;;
20069;SDS011;10195;50.868;4.382;2023-02-01T07:18:39;20.13;;;4.17;;
20069;SDS011;10195;50.868;4.382;2023-02-01T07:21:04;30.17;;;4.73;;
20069;SDS011;10195;50.868;4.382;2023-02-01T07:23:31;24.77;;;5.63;;
20069;SDS011;10195;50.868;4.382;2023-02-01T07:25:58;28.03;;;5.00;;
20069;SDS011;10195;50.868;4.382;2023-02-01T07:28:27;33.23;;;4.77;;
20069;SDS011;10195;50.868;4.382;2023-02-01T07:30:54;30.67;;;5.87;;
20069;SDS011;10195;50.868;4.382;2023-02-01T07:33:21;26.33;;;4.40;;
20069;SDS011;10195;50.868;4.382;2023-02-01T07:35:48;25.27;;;4.27;;
20069;SDS011;10195;50.868;4.382;2023-02-01T07:38:14;35.10;;;5.07;;
20069;SDS011;10195;50.868;4.382;2023-02-01T07:40:41;24.13;;;4.57;;
20069;SDS011;10195;50.868;4.382;2023-02-01T07:43:07;21.03;;;4.00;;
20069;SDS011;10195;50.868;4.382;2023-02-01T07:45:33;27.00;;;4.93;;
20069;SDS011;10195;50.868;4.382;2023-02-01T07:48:00;15.73;;;2.53;;
20069;SDS011;10195;50.868;4.382;2023-02-01T07:50:26;26.87;;;4.10;;
20069;SDS011;10195;50.868;4.382;2023-02-01T07:52:52;32.17;;;5.40;;
20069;SDS011;10195;50.868;4.382;2023-02-01T07:55:19;28.57;;;4.87;;
20069;SDS011;10195;50.868;4.382;2023-02-01T07:57:45;17.80;;;3.87;;
20069;SDS011;10195;50.868;4.382;2023-02-01T08:00:11;22.37;;;3.60;;
20069;SDS011;10195;50.868;4.382;2023-02-01T08:02:59;27.23;;;4.60;;
20069;SDS011;10195;50.868;4.382;2023-02-01T08:05:25;19.83;;;3.77;;
20069;SDS011;10195;50.868;4.382;2023-02-01T08:07:51;15.53;;;3.80;;
20069;SDS011;10195;50.868;4.382;2023-02-01T08:10:17;21.37;;;4.47;;
20069;SDS011;10195;50.868;4.382;2023-02-01T08:12:43;25.97;;;4.93;;
20069;SDS011;10195;50.868;4.382;2023-02-01T08:15:13;26.30;;;4.47;;
20069;SDS011;10195;50.868;4.382;2023-02-01T08:17:46;26.23;;;5.03;;
20069;SDS011;10195;50.868;4.382;2023-02-01T08:20:13;11.67;;;2.70;;
20069;SDS011;10195;50.868;4.382;2023-02-01T08:22:39;23.10;;;4.10;;
20069;SDS011;10195;50.868;4.382;2023-02-01T08:25:04;19.83;;;3.53;;
20069;SDS011;10195;50.868;4.382;2023-02-01T08:27:32;25.60;;;4.33;;
20069;SDS011;10195;50.868;4.382;2023-02-01T08:29:58;26.60;;;5.07;;
20069;SDS011;10195;50.868;4.382;2023-02-01T08:32:25;18.40;;;4.30;;
20069;SDS011;10195;50.868;4.382;2023-02-01T08:34:51;17.43;;;3.73;;
20069;SDS011;10195;50.868;4.382;2023-02-01T08:37:16;24.83;;;4.73;;
20069;SDS011;10195;50.868;4.382;2023-02-01T08:39:42;34.60;;;5.03;;
20069;SDS011;10195;50.868;4.382;2023-02-01T08:42:12;24.60;;;4.13;;
20069;SDS011;10195;50.868;4.382;2023-02-01T08:44:56;14.90;;;3.60;;
20069;SDS011;10195;50.868;4.382;2023-02-01T08:47:22;20.33;;;3.93;;
20069;SDS011;10195;50.868;4.382;2023-02-01T08:49:48;26.00;;;4.30;;
20069;SDS011;10195;50.868;4.382;2023-02-01T08:52:14;21.03;;;4.03;;
20069;SDS011;10195;50.868;4.382;2023-02-01T08:54:39;27.53;;;3.63;;
20069;SDS011;10195;50.868;4.382;2023-02-01T08:57:06;31.83;;;5.10;;
20069;SDS011;10195;50.868;4.382;2023-02-01T08:59:32;20.87;;;3.57;;
20069;SDS011;10195;50.868;4.382;2023-02-01T09:01:58;21.63;;;4.47;;
20069;SDS011;10195;50.868;4.382;2023-02-01T09:04:24;25.23;;;4.60;;
20069;SDS011;10195;50.868;4.382;2023-02-01T09:06:49;16.90;;;3.93;;
20069;SDS011;10195;50.868;4.382;2023-02-01T09:09:15;26.03;;;4.40;;
20069;SDS011;10195;50.868;4.382;2023-02-01T09:11:40;20.00;;;3.87;;
20069;SDS011;10195;50.868;4.382;2023-02-01T09:14:06;25.17;;;4.50;;
20069;SDS011;10195;50.868;4.382;2023-02-01T09:16:32;19.17;;;4.10;;
20069;SDS011;10195;50.868;4.382;2023-02-01T09:18:57;17.13;;;3.40;;
20069;SDS011;10195;50.868;4.382;2023-02-01T09:21:23;18.87;;;3.87;;
20069;SDS011;10195;50.868;4.382;2023-02-01T09:23:50;26.33;;;5.20;;
20069;SDS011;10195;50.868;4.382;2023-02-01T09:26:16;31.97;;;4.60;;
20069;SDS011;10195;50.868;4.382;2023-02-01T09:28:42;23.50;;;5.00;;
20069;SDS011;10195;50.868;4.382;2023-02-01T09:31:08;17.87;;;4.53;;
20069;SDS011;10195;50.868;4.382;2023-02-01T09:33:34;18.47;;;4.50;;
20069;SDS011;10195;50.868;4.382;2023-02-01T09:36:01;22.87;;;5.13;;
20069;SDS011;10195;50.868;4.382;2023-02-01T09:38:29;20.83;;;4.63;;
20069;SDS011;10195;50.868;4.382;2023-02-01T09:40:55;24.60;;;5.10;;
20069;SDS011;10195;50.868;4.382;2023-02-01T09:46:21;19.10;;;5.10;;
20069;SDS011;10195;50.868;4.382;2023-02-01T09:48:52;18.00;;;4.90;;
20069;SDS011;10195;50.868;4.382;2023-02-01T09:51:20;19.50;;;4.90;;
20069;SDS011;10195;50.868;4.382;2023-02-01T09:54:14;25.53;;;4.90;;
20069;SDS011;10195;50.868;4.382;2023-02-01T09:57:13;19.40;;;4.30;;
20069;SDS011;10195;50.868;4.382;2023-02-01T09:59:47;25.63;;;4.30;;
20069;SDS011;10195;50.868;4.382;2023-02-01T10:02:19;14.33;;;3.53;;
20069;SDS011;10195;50.868;4.382;2023-02-01T10:04:52;14.07;;;3.57;;
20069;SDS011;10195;50.868;4.382;2023-02-01T10:10:15;21.30;;;4.23;;
20069;SDS011;10195;50.868;4.382;2023-02-01T10:12:48;17.53;;;4.13;;
20069;SDS011;10195;50.868;4.382;2023-02-01T10:18:14;13.47;;;3.10;;
20069;SDS011;10195;50.868;4.382;2023-02-01T10:26:26;14.97;;;3.27;;
20069;SDS011;10195;50.868;4.382;2023-02-01T10:29:01;19.93;;;3.90;;
20069;SDS011;10195;50.868;4.382;2023-02-01T10:31:30;27.27;;;4.20;;
20069;SDS011;10195;50.868;4.382;2023-02-01T10:34:00;19.20;;;4.20;;
20069;SDS011;10195;50.868;4.382;2023-02-01T10:36:41;17.00;;;3.83;;
20069;SDS011;10195;50.868;4.382;2023-02-01T10:39:15;23.10;;;3.73;;
20069;SDS011;10195;50.868;4.382;2023-02-01T10:41:41;12.87;;;3.60;;
20069;SDS011;10195;50.868;4.382;2023-02-01T10:44:12;15.37;;;3.63;;
20069;SDS011;10195;50.868;4.382;2023-02-01T10:46:40;20.33;;;3.83;;
20069;SDS011;10195;50.868;4.382;2023-02-01T10:49:10;9.97;;;2.37;;
20069;SDS011;10195;50.868;4.382;2023-02-01T10:54:44;17.23;;;3.50;;
20069;SDS011;10195;50.868;4.382;2023-02-01T10:57:11;19.83;;;4.30;;
20069;SDS011;10195;50.868;4.382;2023-02-01T10:59:48;17.53;;;3.20;;
20069;SDS011;10195;50.868;4.382;2023-02-01T11:02:35;19.53;;;3.30;;
20069;SDS011;10195;50.868;4.382;2023-02-01T11:05:07;14.57;;;2.67;;
20069;SDS011;10195;50.868;4.382;2023-02-01T11:07:36;11.73;;;2.63;;
20069;SDS011;10195;50.868;4.382;2023-02-01T11:10:04;15.93;;;3.27;;
20069;SDS011;10195;50.868;4.382;2023-02-01T11:12:34;28.13;;;4.07;;
20069;SDS011;10195;50.868;4.382;2023-02-01T11:15:13;18.87;;;3.43;;
20069;SDS011;10195;50.868;4.382;2023-02-01T11:17:45;25.33;;;3.20;;
20069;SDS011;10195;50.868;4.382;2023-02-01T11:20:16;17.80;;;3.33;;
20069;SDS011;10195;50.868;4.382;2023-02-01T11:22:48;11.93;;;2.90;;
20069;SDS011;10195;50.868;4.382;2023-02-01T11:25:19;15.53;;;3.60;;
20069;SDS011;10195;50.868;4.382;2023-02-01T11:27:46;16.73;;;3.33;;
20069;SDS011;10195;50.868;4.382;2023-02-01T11:30:17;23.40;;;3.50;;
20069;SDS011;10195;50.868;4.382;2023-02-01T11:32:57;20.50;;;3.00;;
20069;SDS011;10195;50.868;4.382;2023-02-01T11:35:24;22.63;;;3.57;;
20069;SDS011;10195;50.868;4.382;2023-02-01T11:37:59;17.43;;;2.73;;
20069;SDS011;10195;50.868;4.382;2023-02-01T11:40:30;14.47;;;2.50;;
20069;SDS011;10195;50.868;4.382;2023-02-01T11:43:07;11.57;;;2.43;;
20069;SDS011;10195;50.868;4.382;2023-02-01T11:45:39;13.40;;;3.43;;
20069;SDS011;10195;50.868;4.382;2023-02-01T11:48:08;14.07;;;3.23;;
20069;SDS011;10195;50.868;4.382;2023-02-01T11:53:20;20.07;;;3.00;;
20069;SDS011;10195;50.868;4.382;2023-02-01T11:59:00;19.20;;;3.70;;
20069;SDS011;10195;50.868;4.382;2023-02-01T12:21:44;21.13;;;3.43;;
20069;SDS011;10195;50.868;4.382;2023-02-01T12:33:13;11.33;;;2.30;;
20069;SDS011;10195;50.868;4.382;2023-02-01T12:41:22;11.83;;;2.83;;
20069;SDS011;10195;50.868;4.382;2023-02-01T12:44:08;9.33;;;2.60;;
20069;SDS011;10195;50.868;4.382;2023-02-01T12:46:55;13.87;;;2.53;;
20069;SDS011;10195;50.868;4.382;2023-02-01T12:49:53;3.70;;;0.90;;
20069;SDS011;10195;50.868;4.382;2023-02-01T12:52:35;13.30;;;2.57;;
20069;SDS011;10195;50.868;4.382;2023-02-01T12:58:09;8.93;;;2.17;;
20069;SDS011;10195;50.868;4.382;2023-02-01T13:00:43;8.53;;;2.33;;
20069;SDS011;10195;50.868;4.382;2023-02-01T13:03:20;9.53;;;2.50;;
20069;SDS011;10195;50.868;4.382;2023-02-01T13:06:01;13.30;;;2.37;;
20069;SDS011;10195;50.868;4.382;2023-02-01T13:08:44;7.60;;;1.97;;
20069;SDS011;10195;50.868;4.382;2023-02-01T13:11:38;12.40;;;2.40;;
20069;SDS011;10195;50.868;4.382;2023-02-01T13:14:12;11.13;;;2.03;;
20069;SDS011;10195;50.868;4.382;2023-02-01T13:17:15;10.73;;;2.80;;
20069;SDS011;10195;50.868;4.382;2023-02-01T13:19:57;16.83;;;2.93;;
20069;SDS011;10195;50.868;4.382;2023-02-01T13:22:34;9.90;;;2.50;;
20069;SDS011;10195;50.868;4.382;2023-02-01T13:27:39;5.73;;;2.13;;
20069;SDS011;10195;50.868;4.382;2023-02-01T13:30:14;15.03;;;2.60;;
20069;SDS011;10195;50.868;4.382;2023-02-01T13:33:05;14.77;;;2.70;;
20069;SDS011;10195;50.868;4.382;2023-02-01T13:35:55;10.37;;;2.10;;
20069;SDS011;10195;50.868;4.382;2023-02-01T13:41:31;9.63;;;2.50;;
20069;SDS011;10195;50.868;4.382;2023-02-01T13:44:02;17.77;;;3.47;;
20069;SDS011;10195;50.868;4.382;2023-02-01T13:46:42;9.57;;;1.87;;
20069;SDS011;10195;50.868;4.382;2023-02-01T13:49:20;13.87;;;2.70;;
20069;SDS011;10195;50.868;4.382;2023-02-01T13:51:53;18.40;;;3.00;;
20069;SDS011;10195;50.868;4.382;2023-02-01T13:54:31;10.53;;;2.37;;
20069;SDS011;10195;50.868;4.382;2023-02-01T13:56:58;6.10;;;2.13;;
20069;SDS011;10195;50.868;4.382;2023-02-01T14:05:03;6.43;;;2.00;;
20069;SDS011;10195;50.868;4.382;2023-02-01T14:07:35;15.80;;;2.47;;
20069;SDS011;10195;50.868;4.382;2023-02-01T14:13:11;20.77;;;3.20;;
20069;SDS011;10195;50.868;4.382;2023-02-01T14:23:38;9.43;;;2.50;;
20069;SDS011;10195;50.868;4.382;2023-02-01T14:26:07;11.77;;;2.53;;
20069;SDS011;10195;50.868;4.382;2023-02-01T14:28:36;14.90;;;2.83;;
20069;SDS011;10195;50.868;4.382;2023-02-01T14:33:57;9.27;;;2.00;;
20069;SDS011;10195;50.868;4.382;2023-02-01T14:36:24;28.67;;;2.47;;
20069;SDS011;10195;50.868;4.382;2023-02-01T14:38:51;14.60;;;3.03;;
20069;SDS011;10195;50.868;4.382;2023-02-01T14:41:31;15.03;;;2.60;;
20069;SDS011;10195;50.868;4.382;2023-02-01T14:49:32;10.67;;;2.43;;
20069;SDS011;10195;50.868;4.382;2023-02-01T14:52:02;7.27;;;2.03;;
20069;SDS011;10195;50.868;4.382;2023-02-01T14:54:31;7.93;;;1.77;;
20069;SDS011;10195;50.868;4.382;2023-02-01T14:56:57;9.90;;;2.40;;
20069;SDS011;10195;50.868;4.382;2023-02-01T14:59:23;15.33;;;2.63;;
20069;SDS011;10195;50.868;4.382;2023-02-01T15:01:58;11.17;;;2.90;;
20069;SDS011;10195;50.868;4.382;2023-02-01T15:04:26;13.40;;;2.80;;
20069;SDS011;10195;50.868;4.382;2023-02-01T15:06:56;11.93;;;2.77;;
20069;SDS011;10195;50.868;4.382;2023-02-01T15:14:30;12.67;;;3.90;;
20069;SDS011;10195;50.868;4.382;2023-02-01T15:16:59;21.10;;;2.07;;
20069;SDS011;10195;50.868;4.382;2023-02-01T15:19:26;12.20;;;2.67;;
20069;SDS011;10195;50.868;4.382;2023-02-01T15:21:54;15.90;;;2.93;;
20069;SDS011;10195;50.868;4.382;2023-02-01T15:24:25;16.13;;;3.07;;
20069;SDS011;10195;50.868;4.382;2023-02-01T15:26:53;12.83;;;2.80;;
20069;SDS011;10195;50.868;4.382;2023-02-01T15:29:20;15.17;;;2.63;;
20069;SDS011;10195;50.868;4.382;2023-02-01T15:31:52;9.67;;;2.70;;
20069;SDS011;10195;50.868;4.382;2023-02-01T15:34:18;17.33;;;2.93;;
20069;SDS011;10195;50.868;4.382;2023-02-01T15:36:45;21.83;;;3.53;;
20069;SDS011;10195;50.868;4.382;2023-02-01T15:39:12;12.63;;;2.13;;
20069;SDS011;10195;50.868;4.382;2023-02-01T15:41:44;19.97;;;3.40;;
20069;SDS011;10195;50.868;4.382;2023-02-01T15:44:17;15.40;;;2.97;;
20069;SDS011;10195;50.868;4.382;2023-02-01T15:46:45;22.40;;;4.30;;
20069;SDS011;10195;50.868;4.382;2023-02-01T15:49:25;18.20;;;4.00;;
20069;SDS011;10195;50.868;4.382;2023-02-01T15:51:58;17.43;;;3.87;;
20069;SDS011;10195;50.868;4.382;2023-02-01T15:54:34;12.90;;;3.77;;
20069;SDS011;10195;50.868;4.382;2023-02-01T15:57:10;14.27;;;3.60;;
20069;SDS011;10195;50.868;4.382;2023-02-01T15:59:43;14.97;;;3.57;;
20069;SDS011;10195;50.868;4.382;2023-02-01T16:05:04;24.60;;;3.33;;
20069;SDS011;10195;50.868;4.382;2023-02-01T16:07:55;16.57;;;3.33;;
20069;SDS011;10195;50.868;4.382;2023-02-01T16:10:41;11.87;;;2.43;;
20069;SDS011;10195;50.868;4.382;2023-02-01T16:13:09;27.37;;;4.37;;
20069;SDS011;10195;50.868;4.382;2023-02-01T16:15:34;21.23;;;3.57;;
20069;SDS011;10195;50.868;4.382;2023-02-01T16:18:00;15.93;;;3.13;;
20069;SDS011;10195;50.868;4.382;2023-02-01T16:20:26;10.27;;;2.13;;
20069;SDS011;10195;50.868;4.382;2023-02-01T16:22:51;9.60;;;2.93;;
20069;SDS011;10195;50.868;4.382;2023-02-01T16:25:17;21.53;;;3.00;;
20069;SDS011;10195;50.868;4.382;2023-02-01T16:27:43;13.57;;;3.13;;
20069;SDS011;10195;50.868;4.382;2023-02-01T16:30:09;15.00;;;3.63;;
20069;SDS011;10195;50.868;4.382;2023-02-01T16:32:35;15.80;;;3.43;;
20069;SDS011;10195;50.868;4.382;2023-02-01T16:35:05;18.70;;;2.90;;
20069;SDS011;10195;50.868;4.382;2023-02-01T16:37:43;23.23;;;4.20;;
20069;SDS011;10195;50.868;4.382;2023-02-01T16:40:16;16.13;;;3.33;;
20069;SDS011;10195;50.868;4.382;2023-02-01T16:42:44;15.30;;;3.10;;
20069;SDS011;10195;50.868;4.382;2023-02-01T16:45:11;13.20;;;3.30;;
20069;SDS011;10195;50.868;4.382;2023-02-01T16:47:37;20.63;;;3.80;;
20069;SDS011;10195;50.868;4.382;2023-02-01T16:50:05;23.93;;;4.30;;
20069;SDS011;10195;50.868;4.382;2023-02-01T16:52:41;18.43;;;4.47;;
20069;SDS011;10195;50.868;4.382;2023-02-01T16:55:12;26.57;;;4.30;;
20069;SDS011;10195;50.868;4.382;2023-02-01T16:57:46;16.93;;;4.07;;
20069;SDS011;10195;50.868;4.382;2023-02-01T17:00:12;25.23;;;4.43;;
20069;SDS011;10195;50.868;4.382;2023-02-01T17:02:40;24.57;;;4.67;;
20069;SDS011;10195;50.868;4.382;2023-02-01T17:05:07;18.73;;;3.80;;
20069;SDS011;10195;50.868;4.382;2023-02-01T17:07:34;22.60;;;4.33;;
20069;SDS011;10195;50.868;4.382;2023-02-01T17:10:00;23.40;;;3.83;;